createdAt,value
2019-01-09T00:00:19.836Z,0.00
2019-01-09T00:01:20.166Z,0.00
2019-01-09T00:02:19.814Z,0.00
2019-01-09T00:03:19.803Z,0.00
2019-01-09T00:04:19.800Z,0.00
2019-01-09T00:05:28.122Z,0.00
2019-01-09T00:06:20.792Z,0.00
2019-01-09T00:07:20.113Z,0.00
2019-01-09T00:08:19.753Z,0.00
2019-01-09T00:09:19.744Z,0.00
2019-01-09T00:10:19.736Z,0.00
2019-01-09T00:11:19.721Z,0.00
2019-01-09T00:12:19.724Z,0.00
2019-01-09T00:13:19.774Z,0.00
2019-01-09T00:14:19.970Z,0.00
2019-01-09T00:15:19.683Z,0.00
2019-01-09T00:16:19.668Z,0.00
2019-01-09T00:17:19.656Z,0.00
2019-01-09T00:18:19.655Z,0.00
2019-01-09T00:19:19.751Z,0.00
2019-01-09T00:20:19.627Z,0.00
2019-01-09T00:21:19.913Z,0.00
2019-01-09T00:22:19.609Z,0.00
2019-01-09T00:23:19.595Z,0.00
2019-01-09T00:24:19.595Z,0.00
2019-01-09T00:25:19.651Z,0.00
2019-01-09T00:26:19.563Z,0.00
2019-01-09T00:27:19.555Z,0.00
2019-01-09T00:28:19.827Z,0.00
2019-01-09T00:29:19.531Z,0.00
2019-01-09T00:30:19.521Z,0.00
2019-01-09T00:31:19.593Z,0.00
2019-01-09T00:32:19.500Z,0.00
2019-01-09T00:33:19.587Z,0.00
2019-01-09T00:34:19.479Z,0.00
2019-01-09T00:35:19.765Z,0.00
2019-01-09T00:36:19.461Z,0.00
2019-01-09T00:37:19.717Z,0.00
2019-01-09T00:38:19.438Z,0.00
2019-01-09T00:39:19.427Z,0.00
2019-01-09T00:40:19.424Z,0.00
2019-01-09T00:41:19.406Z,0.00
2019-01-09T00:42:19.674Z,0.00
2019-01-09T00:43:19.457Z,0.00
2019-01-09T00:44:19.374Z,0.00
2019-01-09T00:45:19.372Z,0.00
2019-01-09T00:46:19.355Z,0.00
2019-01-09T00:47:19.343Z,0.00
2019-01-09T00:48:19.332Z,0.00
2019-01-09T00:49:19.674Z,0.00
2019-01-09T00:50:19.312Z,0.00
2019-01-09T00:51:19.319Z,0.00
2019-01-09T00:52:19.292Z,0.00
2019-01-09T00:53:19.284Z,0.00
2019-01-09T00:54:19.270Z,0.00
2019-01-09T00:55:19.500Z,0.00
2019-01-09T00:56:19.530Z,0.00
2019-01-09T00:57:19.236Z,0.00
2019-01-09T00:58:19.226Z,0.00
2019-01-09T00:59:19.220Z,0.00
2019-01-09T01:00:19.206Z,0.00
2019-01-09T01:01:19.265Z,0.00
2019-01-09T01:02:19.188Z,0.00
2019-01-09T01:03:19.452Z,0.00
2019-01-09T01:04:19.175Z,0.00
2019-01-09T01:05:19.152Z,0.00
2019-01-09T01:06:19.144Z,0.00
2019-01-09T01:07:19.204Z,0.00
2019-01-09T01:08:19.122Z,0.00
2019-01-09T01:09:19.109Z,0.00
2019-01-09T01:10:19.387Z,0.00
2019-01-09T01:11:19.100Z,0.00
2019-01-09T01:12:19.110Z,0.00
2019-01-09T01:13:19.164Z,0.00
2019-01-09T01:14:19.055Z,0.00
2019-01-09T01:15:19.044Z,0.00
2019-01-09T01:16:19.033Z,0.00
2019-01-09T01:17:19.334Z,0.00
2019-01-09T01:18:19.012Z,0.00
2019-01-09T01:19:19.075Z,0.00
2019-01-09T01:20:18.994Z,0.00
2019-01-09T01:21:18.979Z,0.00
2019-01-09T01:22:18.968Z,0.00
2019-01-09T01:23:18.967Z,0.00
2019-01-09T01:24:19.226Z,0.00
2019-01-09T01:25:19.020Z,0.00
2019-01-09T01:26:18.928Z,0.00
2019-01-09T01:27:18.922Z,0.00
2019-01-09T01:28:18.912Z,0.00
2019-01-09T01:29:18.896Z,0.00
2019-01-09T01:30:18.891Z,0.00
2019-01-09T01:31:19.252Z,0.00
2019-01-09T01:32:18.862Z,0.00
2019-01-09T01:33:18.851Z,0.00
2019-01-09T01:34:18.864Z,0.00
2019-01-09T01:35:18.830Z,0.00
2019-01-09T01:36:18.827Z,0.00
2019-01-09T01:37:18.881Z,0.00
2019-01-09T01:38:18.798Z,0.00
2019-01-09T01:39:18.785Z,0.00
2019-01-09T01:40:18.787Z,0.00
2019-01-09T01:41:18.769Z,0.00
2019-01-09T01:42:18.754Z,0.00
2019-01-09T01:43:18.810Z,0.00
2019-01-09T01:44:19.009Z,0.00
2019-01-09T01:45:18.726Z,0.00
2019-01-09T01:46:18.711Z,0.00
2019-01-09T01:47:18.704Z,0.00
2019-01-09T01:48:18.691Z,0.00
2019-01-09T01:49:18.756Z,0.00
2019-01-09T01:50:18.668Z,0.00
2019-01-09T01:51:18.656Z,0.00
2019-01-09T01:52:18.648Z,0.00
2019-01-09T01:53:18.642Z,0.00
2019-01-09T01:54:18.624Z,0.00
2019-01-09T01:55:18.652Z,0.00
2019-01-09T01:56:18.879Z,0.00
2019-01-09T01:57:18.594Z,0.00
2019-01-09T01:58:18.581Z,0.00
2019-01-09T01:59:18.575Z,0.00
2019-01-09T02:00:18.578Z,0.00
2019-01-09T02:01:18.603Z,0.00
2019-01-09T02:02:19.027Z,0.00
2019-01-09T02:03:18.535Z,0.00
2019-01-09T02:04:18.520Z,0.00
2019-01-09T02:05:18.506Z,0.00
2019-01-09T02:06:18.504Z,0.00
2019-01-09T02:07:18.533Z,0.00
2019-01-09T02:08:18.474Z,0.00
2019-01-09T02:09:18.548Z,0.00
2019-01-09T02:10:18.454Z,0.00
2019-01-09T02:11:18.444Z,0.00
2019-01-09T02:12:18.444Z,0.00
2019-01-09T02:13:18.468Z,0.00
2019-01-09T02:14:18.688Z,0.00
2019-01-09T02:15:18.403Z,0.00
2019-01-09T02:16:18.389Z,0.00
2019-01-09T02:17:18.375Z,0.00
2019-01-09T02:18:18.368Z,0.00
2019-01-09T02:19:18.395Z,0.00
2019-01-09T02:20:18.346Z,0.00
2019-01-09T02:21:18.621Z,0.00
2019-01-09T02:22:18.326Z,0.00
2019-01-09T02:23:18.311Z,0.00
2019-01-09T02:24:18.301Z,0.00
2019-01-09T02:25:18.352Z,0.00
2019-01-09T02:26:18.281Z,0.00
2019-01-09T02:27:18.268Z,0.00
2019-01-09T02:28:18.536Z,0.00
2019-01-09T02:29:18.247Z,0.00
2019-01-09T02:30:18.241Z,0.00
2019-01-09T02:31:18.272Z,0.00
2019-01-09T02:32:18.286Z,0.00
2019-01-09T02:33:18.213Z,0.00
2019-01-09T02:34:18.194Z,0.00
2019-01-09T02:35:18.465Z,0.00
2019-01-09T02:36:18.177Z,0.00
2019-01-09T02:37:18.205Z,0.00
2019-01-09T02:38:18.154Z,0.00
2019-01-09T02:39:18.150Z,0.00
2019-01-09T02:40:18.137Z,0.00
2019-01-09T02:41:18.131Z,0.00
2019-01-09T02:42:18.404Z,0.00
2019-01-09T02:43:18.300Z,0.00
2019-01-09T02:44:18.092Z,0.00
2019-01-09T02:45:18.080Z,0.00
2019-01-09T02:46:18.078Z,0.00
2019-01-09T02:47:18.068Z,0.00
2019-01-09T02:48:18.048Z,0.00
2019-01-09T02:49:18.352Z,0.00
2019-01-09T02:50:18.033Z,0.00
2019-01-09T02:51:18.023Z,0.00
2019-01-09T02:52:18.013Z,0.00
2019-01-09T02:53:18.001Z,0.00
2019-01-09T02:54:17.993Z,0.00
2019-01-09T02:55:18.011Z,0.00
2019-01-09T02:56:18.252Z,0.00
2019-01-09T02:57:17.955Z,0.00
2019-01-09T02:58:17.944Z,0.00
2019-01-09T02:59:17.939Z,0.00
2019-01-09T03:01:39.630Z,0.00
2019-01-09T03:02:39.330Z,0.00
2019-01-09T03:03:39.322Z,0.00
2019-01-09T03:04:39.309Z,0.00
2019-01-09T03:05:39.300Z,0.00
2019-01-09T03:06:39.289Z,0.00
2019-01-09T03:07:39.699Z,0.00
2019-01-09T03:08:39.268Z,0.00
2019-01-09T03:09:39.268Z,0.00
2019-01-09T03:10:39.253Z,0.00
2019-01-09T03:11:39.249Z,0.00
2019-01-09T03:12:39.233Z,0.00
2019-01-09T03:13:39.252Z,0.00
2019-01-09T03:14:39.231Z,0.00
2019-01-09T03:15:39.198Z,0.00
2019-01-09T03:16:39.196Z,0.00
2019-01-09T03:17:39.190Z,0.00
2019-01-09T03:18:39.190Z,0.00
2019-01-09T03:19:39.647Z,0.00
2019-01-09T03:20:39.159Z,0.00
2019-01-09T03:21:39.137Z,0.00
2019-01-09T03:22:39.118Z,0.00
2019-01-09T03:23:39.129Z,0.00
2019-01-09T03:24:39.121Z,0.00
2019-01-09T03:25:39.118Z,0.00
2019-01-09T03:26:39.362Z,0.00
2019-01-09T03:27:39.067Z,0.00
2019-01-09T03:28:39.055Z,0.00
2019-01-09T03:29:39.051Z,0.00
2019-01-09T03:30:39.038Z,0.00
2019-01-09T03:31:39.056Z,0.00
2019-01-09T03:32:39.029Z,0.00
2019-01-09T03:33:39.288Z,0.00
2019-01-09T03:34:39.000Z,0.00
2019-01-09T03:35:39.013Z,0.00
2019-01-09T03:36:39.000Z,0.00
2019-01-09T03:37:39.156Z,0.00
2019-01-09T03:38:38.952Z,0.00
2019-01-09T03:39:38.948Z,0.00
2019-01-09T03:40:39.209Z,0.00
2019-01-09T03:41:38.921Z,0.00
2019-01-09T03:42:38.922Z,0.00
2019-01-09T03:43:38.939Z,0.00
2019-01-09T03:44:38.889Z,0.00
2019-01-09T03:45:38.882Z,0.00
2019-01-09T03:46:38.868Z,0.00
2019-01-09T03:47:39.138Z,0.00
2019-01-09T03:48:38.846Z,0.00
2019-01-09T03:49:38.864Z,0.00
2019-01-09T03:50:38.828Z,0.00
2019-01-09T03:51:38.815Z,0.00
2019-01-09T03:52:38.806Z,0.00
2019-01-09T03:53:38.795Z,0.00
2019-01-09T03:54:39.066Z,0.00
2019-01-09T03:55:39.073Z,0.00
2019-01-09T03:56:38.768Z,0.00
2019-01-09T03:57:38.756Z,0.00
2019-01-09T03:58:38.743Z,0.00
2019-01-09T03:59:38.733Z,0.00
2019-01-09T04:00:38.724Z,0.00
2019-01-09T04:01:38.746Z,0.00
2019-01-09T04:02:38.715Z,0.00
2019-01-09T04:03:38.698Z,0.00
2019-01-09T04:04:38.683Z,0.00
2019-01-09T04:05:38.677Z,0.00
2019-01-09T04:06:41.945Z,0.00
2019-01-09T04:07:38.965Z,0.00
2019-01-09T04:08:38.641Z,0.00
2019-01-09T04:09:38.631Z,0.00
2019-01-09T04:10:38.621Z,0.00
2019-01-09T04:11:38.609Z,0.00
2019-01-09T04:12:38.605Z,0.00
2019-01-09T04:13:38.870Z,0.00
2019-01-09T04:14:38.872Z,0.00
2019-01-09T04:15:38.580Z,0.00
2019-01-09T04:16:38.561Z,0.00
2019-01-09T04:17:38.546Z,0.00
2019-01-09T04:18:38.548Z,0.00
2019-01-09T04:19:38.606Z,0.00
2019-01-09T04:20:38.517Z,0.00
2019-01-09T04:21:38.800Z,0.00
2019-01-09T04:22:38.500Z,0.00
2019-01-09T04:23:38.513Z,0.00
2019-01-09T04:24:38.476Z,0.00
2019-01-09T04:25:38.504Z,0.00
2019-01-09T04:26:38.461Z,0.00
2019-01-09T04:27:38.456Z,0.00
2019-01-09T04:28:38.723Z,0.00
2019-01-09T04:29:38.430Z,0.00
2019-01-09T04:30:38.428Z,0.00
2019-01-09T04:31:38.455Z,0.00
2019-01-09T04:32:38.407Z,0.00
2019-01-09T04:33:38.383Z,0.00
2019-01-09T04:34:38.373Z,0.00
2019-01-09T04:35:38.643Z,0.00
2019-01-09T04:36:38.352Z,0.00
2019-01-09T04:37:38.369Z,0.00
2019-01-09T04:38:38.332Z,0.00
2019-01-09T04:39:38.322Z,0.00
2019-01-09T04:40:38.311Z,0.00
2019-01-09T04:41:38.300Z,0.00
2019-01-09T04:42:38.569Z,0.00
2019-01-09T04:43:38.307Z,0.00
2019-01-09T04:44:38.270Z,0.00
2019-01-09T04:45:38.261Z,0.00
2019-01-09T04:46:38.260Z,0.00
2019-01-09T04:47:38.240Z,0.00
2019-01-09T04:48:38.230Z,0.00
2019-01-09T04:49:38.550Z,0.00
2019-01-09T04:50:38.221Z,0.00
2019-01-09T04:51:38.204Z,0.00
2019-01-09T04:52:38.196Z,0.00
2019-01-09T04:53:38.185Z,0.00
2019-01-09T04:54:38.168Z,0.00
2019-01-09T04:55:38.200Z,0.00
2019-01-09T04:56:38.436Z,0.00
2019-01-09T04:57:38.143Z,0.00
2019-01-09T04:58:38.127Z,0.00
2019-01-09T04:59:38.116Z,0.00
2019-01-09T05:00:38.811Z,0.00
2019-01-09T05:01:39.018Z,0.00
2019-01-09T05:02:38.085Z,0.00
2019-01-09T05:03:38.355Z,0.00
2019-01-09T05:04:38.065Z,0.00
2019-01-09T05:05:38.060Z,0.00
2019-01-09T05:06:38.046Z,0.00
2019-01-09T05:07:38.135Z,0.00
2019-01-09T05:08:38.064Z,0.00
2019-01-09T05:09:38.018Z,0.00
2019-01-09T05:10:38.016Z,0.00
2019-01-09T05:11:38.000Z,0.00
2019-01-09T05:12:37.985Z,0.00
2019-01-09T05:13:38.021Z,0.00
2019-01-09T05:14:37.962Z,0.00
2019-01-09T05:15:37.951Z,0.00
2019-01-09T05:16:38.220Z,0.00
2019-01-09T05:17:37.946Z,0.00
2019-01-09T05:18:37.939Z,0.00
2019-01-09T05:19:37.957Z,0.00
2019-01-09T05:20:37.900Z,0.00
2019-01-09T05:21:37.911Z,0.00
2019-01-09T05:22:37.890Z,0.00
2019-01-09T05:23:37.887Z,0.00
2019-01-09T05:24:37.858Z,0.00
2019-01-09T05:25:38.051Z,0.00
2019-01-09T05:26:37.837Z,0.00
2019-01-09T05:27:37.829Z,0.00
2019-01-09T05:28:38.212Z,0.00
2019-01-09T05:29:37.817Z,0.00
2019-01-09T05:30:37.795Z,0.00
2019-01-09T05:31:37.826Z,0.00
2019-01-09T05:32:37.863Z,0.00
2019-01-09T05:33:37.766Z,0.00
2019-01-09T05:34:37.756Z,0.00
2019-01-09T05:35:37.769Z,0.00
2019-01-09T05:36:37.948Z,0.00
2019-01-09T05:37:37.770Z,0.00
2019-01-09T05:38:37.710Z,0.00
2019-01-09T05:39:39.843Z,0.00
2019-01-09T05:40:38.031Z,0.00
2019-01-09T05:41:37.683Z,0.00
2019-01-09T05:42:37.667Z,0.00
2019-01-09T05:43:37.746Z,0.00
2019-01-09T05:44:37.659Z,0.00
2019-01-09T05:45:37.639Z,0.00
2019-01-09T05:46:37.719Z,0.00
2019-01-09T05:47:37.946Z,0.00
2019-01-09T05:48:37.617Z,0.00
2019-01-09T05:49:37.634Z,0.00
2019-01-09T05:50:37.588Z,0.00
2019-01-09T05:51:37.578Z,0.00
2019-01-09T05:52:37.579Z,0.00
2019-01-09T05:53:37.551Z,0.00
2019-01-09T05:54:37.820Z,0.00
2019-01-09T05:55:37.575Z,0.00
2019-01-09T05:56:37.521Z,0.00
2019-01-09T05:57:37.511Z,0.00
2019-01-09T05:58:37.500Z,0.00
2019-01-09T05:59:37.489Z,0.00
2019-01-09T06:00:37.490Z,0.00
2019-01-09T06:01:37.554Z,0.00
2019-01-09T06:02:37.458Z,0.00
2019-01-09T06:03:37.479Z,0.00
2019-01-09T06:04:37.439Z,0.00
2019-01-09T06:05:37.426Z,0.00
2019-01-09T06:06:37.416Z,0.00
2019-01-09T06:07:37.798Z,0.00
2019-01-09T06:08:37.397Z,0.00
2019-01-09T06:09:37.385Z,0.00
2019-01-09T06:10:37.374Z,0.00
2019-01-09T06:11:37.395Z,0.00
2019-01-09T06:12:37.352Z,0.00
2019-01-09T06:13:37.467Z,0.00
2019-01-09T06:14:37.773Z,0.00
2019-01-09T06:15:37.320Z,0.00
2019-01-09T06:16:37.310Z,0.00
2019-01-09T06:17:37.341Z,0.00
2019-01-09T06:18:37.304Z,0.00
2019-01-09T06:19:37.867Z,0.00
2019-01-09T06:20:37.271Z,0.00
2019-01-09T06:21:37.658Z,0.00
2019-01-09T06:22:37.273Z,0.00
2019-01-09T06:23:37.241Z,0.00
2019-01-09T06:24:37.229Z,0.00
2019-01-09T06:25:37.292Z,0.00
2019-01-09T06:26:37.205Z,0.00
2019-01-09T06:27:37.197Z,0.00
2019-01-09T06:28:37.524Z,0.00
2019-01-09T06:29:37.173Z,0.00
2019-01-09T06:30:37.169Z,0.00
2019-01-09T06:31:37.190Z,0.00
2019-01-09T06:32:37.147Z,0.00
2019-01-09T06:33:37.134Z,0.00
2019-01-09T06:34:37.143Z,0.00
2019-01-09T06:35:37.194Z,0.00
2019-01-09T06:36:37.102Z,0.00
2019-01-09T06:37:37.138Z,0.00
2019-01-09T06:38:37.090Z,0.00
2019-01-09T06:39:37.070Z,0.00
2019-01-09T06:40:37.071Z,0.00
2019-01-09T06:41:37.519Z,0.00
2019-01-09T06:42:37.053Z,0.00
2019-01-09T06:43:37.073Z,0.00
2019-01-09T06:44:37.017Z,0.00
2019-01-09T06:45:37.041Z,0.00
2019-01-09T06:46:36.997Z,0.00
2019-01-09T06:47:36.988Z,0.00
2019-01-09T06:48:37.254Z,0.00
2019-01-09T06:49:38.195Z,0.00
2019-01-09T06:50:36.955Z,0.00
2019-01-09T06:51:36.953Z,0.00
2019-01-09T06:52:36.964Z,0.00
2019-01-09T06:53:36.937Z,0.00
2019-01-09T06:54:36.929Z,0.00
2019-01-09T06:55:36.971Z,0.00
2019-01-09T06:56:36.896Z,0.00
2019-01-09T06:57:36.888Z,0.00
2019-01-09T06:58:36.875Z,0.00
2019-01-09T06:59:36.863Z,0.00
2019-01-09T07:00:36.851Z,0.00
2019-01-09T07:01:36.888Z,0.00
2019-01-09T07:02:36.832Z,0.00
2019-01-09T07:03:36.821Z,0.00
2019-01-09T07:04:36.811Z,0.00
2019-01-09T07:05:36.805Z,0.00
2019-01-09T07:06:36.799Z,0.00
2019-01-09T07:07:36.820Z,0.00
2019-01-09T07:08:36.778Z,0.00
2019-01-09T07:09:36.758Z,0.00
2019-01-09T07:10:37.746Z,0.00
2019-01-09T07:11:36.836Z,0.00
2019-01-09T07:12:36.736Z,0.00
2019-01-09T07:13:37.256Z,0.00
2019-01-09T07:14:36.706Z,0.00
2019-01-09T07:15:36.699Z,0.00
2019-01-09T07:16:36.684Z,0.00
2019-01-09T07:17:36.680Z,0.00
2019-01-09T07:18:36.662Z,0.00
2019-01-09T07:19:37.238Z,0.00
2019-01-09T07:20:36.648Z,0.00
2019-01-09T07:21:45.236Z,0.00
2019-01-09T07:22:37.630Z,0.00
2019-01-09T07:23:36.611Z,0.00
2019-01-09T07:24:36.599Z,0.00
2019-01-09T07:25:36.723Z,0.00
2019-01-09T07:26:37.015Z,0.00
2019-01-09T07:27:36.581Z,0.00
2019-01-09T07:28:36.558Z,0.00
2019-01-09T07:29:36.561Z,0.00
2019-01-09T07:30:36.545Z,0.00
2019-01-09T07:31:36.662Z,0.00
2019-01-09T07:32:36.516Z,0.00
2019-01-09T07:33:36.506Z,0.00
2019-01-09T07:34:36.510Z,0.00
2019-01-09T07:35:36.487Z,0.00
2019-01-09T07:36:36.489Z,0.00
2019-01-09T07:37:44.711Z,0.00
2019-01-09T07:38:37.454Z,0.00
2019-01-09T07:39:36.504Z,0.00
2019-01-09T07:40:36.433Z,0.00
2019-01-09T07:41:36.423Z,5.62
2019-01-09T07:42:36.415Z,5.62
2019-01-09T07:43:36.532Z,5.62
2019-01-09T07:44:36.392Z,0.00
2019-01-09T07:45:36.387Z,0.00
2019-01-09T07:46:36.373Z,0.00
2019-01-09T07:47:36.370Z,0.00
2019-01-09T07:48:36.437Z,5.62
2019-01-09T07:49:36.394Z,5.62
2019-01-09T07:50:36.331Z,5.62
2019-01-09T07:51:36.345Z,5.62
2019-01-09T07:52:36.317Z,5.62
2019-01-09T07:53:36.332Z,5.62
2019-01-09T07:54:36.291Z,5.62
2019-01-09T07:55:36.350Z,5.62
2019-01-09T07:56:36.296Z,5.62
2019-01-09T07:57:36.661Z,5.62
2019-01-09T07:58:36.252Z,5.62
2019-01-09T07:59:36.241Z,11.25
2019-01-09T08:00:36.251Z,11.25
2019-01-09T08:01:36.467Z,11.25
2019-01-09T08:02:36.206Z,11.25
2019-01-09T08:03:36.199Z,11.25
2019-01-09T08:04:36.187Z,11.25
2019-01-09T08:05:36.189Z,11.25
2019-01-09T08:06:36.166Z,11.25
2019-01-09T08:07:36.204Z,11.25
2019-01-09T08:08:36.146Z,11.25
2019-01-09T08:09:36.427Z,11.25
2019-01-09T08:10:36.123Z,11.25
2019-01-09T08:11:36.115Z,11.25
2019-01-09T08:12:36.104Z,11.25
2019-01-09T08:13:36.231Z,11.25
2019-01-09T08:14:36.084Z,11.25
2019-01-09T08:15:36.152Z,11.25
2019-01-09T08:16:36.546Z,11.25
2019-01-09T08:17:36.061Z,16.88
2019-01-09T08:18:36.043Z,16.88
2019-01-09T08:19:36.075Z,16.88
2019-01-09T08:20:36.102Z,11.25
2019-01-09T08:21:36.072Z,11.25
2019-01-09T08:22:36.190Z,11.25
2019-01-09T08:23:36.025Z,11.25
2019-01-09T08:24:36.022Z,11.25
2019-01-09T08:25:36.039Z,11.25
2019-01-09T08:26:35.983Z,11.25
2019-01-09T08:27:35.957Z,11.25
2019-01-09T08:28:35.942Z,11.25
2019-01-09T08:29:35.931Z,11.25
2019-01-09T08:30:35.926Z,11.25
2019-01-09T08:31:35.957Z,11.25
2019-01-09T08:32:35.919Z,16.88
2019-01-09T08:33:36.082Z,16.88
2019-01-09T08:34:35.883Z,16.88
2019-01-09T08:35:35.911Z,16.88
2019-01-09T08:36:35.857Z,22.50
2019-01-09T08:37:35.889Z,22.50
2019-01-09T08:38:35.837Z,28.12
2019-01-09T08:39:35.827Z,33.75
2019-01-09T08:40:35.814Z,33.75
2019-01-09T08:41:36.301Z,39.38
2019-01-09T08:42:35.952Z,45.00
2019-01-09T08:43:36.265Z,39.38
2019-01-09T08:44:35.785Z,45.00
2019-01-09T08:45:36.565Z,50.62
2019-01-09T08:46:35.808Z,50.62
2019-01-09T08:47:35.743Z,61.88
2019-01-09T08:48:36.180Z,61.88
2019-01-09T08:49:35.781Z,61.88
2019-01-09T08:50:35.715Z,61.88
2019-01-09T08:51:35.703Z,61.88
2019-01-09T08:52:35.692Z,56.25
2019-01-09T08:53:35.683Z,56.25
2019-01-09T08:54:35.785Z,61.88
2019-01-09T08:55:36.028Z,56.25
2019-01-09T08:56:35.779Z,50.62
2019-01-09T08:57:35.645Z,56.25
2019-01-09T08:58:35.647Z,56.25
2019-01-09T08:59:35.621Z,56.25
2019-01-09T09:00:35.609Z,50.62
2019-01-09T09:01:36.443Z,50.62
2019-01-09T09:02:35.594Z,50.62
2019-01-09T09:03:35.602Z,61.88
2019-01-09T09:04:35.570Z,61.88
2019-01-09T09:05:35.580Z,67.50
2019-01-09T09:06:35.558Z,67.50
2019-01-09T09:07:35.640Z,67.50
2019-01-09T09:08:35.664Z,56.25
2019-01-09T09:09:35.604Z,61.88
2019-01-09T09:10:35.728Z,61.88
2019-01-09T09:11:35.521Z,67.50
2019-01-09T09:12:35.515Z,50.62
2019-01-09T09:13:35.849Z,50.62
2019-01-09T09:14:36.463Z,56.25
2019-01-09T09:15:35.455Z,56.25
2019-01-09T09:16:36.838Z,50.62
2019-01-09T09:17:35.438Z,50.62
2019-01-09T09:18:35.437Z,39.38
2019-01-09T09:19:36.175Z,39.38
2019-01-09T09:20:35.408Z,45.00
2019-01-09T09:21:35.439Z,50.62
2019-01-09T09:22:35.558Z,50.62
2019-01-09T09:23:35.415Z,67.50
2019-01-09T09:24:36.180Z,73.12
2019-01-09T09:25:35.913Z,84.38
2019-01-09T09:26:35.835Z,73.12
2019-01-09T09:27:35.414Z,61.88
2019-01-09T09:28:35.449Z,61.88
2019-01-09T09:29:36.127Z,56.25
2019-01-09T09:30:35.304Z,61.88
2019-01-09T09:31:35.345Z,56.25
2019-01-09T09:32:35.322Z,50.62
2019-01-09T09:33:35.840Z,50.62
2019-01-09T09:34:35.342Z,50.62
2019-01-09T09:35:35.495Z,56.25
2019-01-09T09:36:35.593Z,56.25
2019-01-09T09:37:37.724Z,67.50
2019-01-09T09:38:35.397Z,67.50
2019-01-09T09:39:35.507Z,39.38
2019-01-09T09:40:35.214Z,61.88
2019-01-09T09:41:35.197Z,39.38
2019-01-09T09:42:35.190Z,45.00
2019-01-09T09:43:35.204Z,45.00
2019-01-09T09:44:35.547Z,45.00
2019-01-09T09:45:35.180Z,56.25
2019-01-09T09:46:35.448Z,50.62
2019-01-09T09:47:35.237Z,50.62
2019-01-09T09:48:35.116Z,45.00
2019-01-09T09:49:35.508Z,50.62
2019-01-09T09:50:35.096Z,50.62
2019-01-09T09:51:35.114Z,45.00
2019-01-09T09:52:35.152Z,50.62
2019-01-09T09:53:36.392Z,50.62
2019-01-09T09:54:35.059Z,45.00
2019-01-09T09:55:36.045Z,45.00
2019-01-09T09:56:35.182Z,45.00
2019-01-09T09:57:35.027Z,45.00
2019-01-09T09:58:35.046Z,45.00
2019-01-09T09:59:35.008Z,45.00
2019-01-09T10:00:35.764Z,45.00
2019-01-09T10:01:35.335Z,39.38
2019-01-09T10:02:35.443Z,39.38
2019-01-09T10:03:35.914Z,39.38
2019-01-09T10:04:35.050Z,33.75
2019-01-09T10:05:35.017Z,33.75
2019-01-09T10:06:34.947Z,33.75
2019-01-09T10:07:34.959Z,33.75
2019-01-09T10:08:34.911Z,33.75
2019-01-09T10:09:34.903Z,33.75
2019-01-09T10:10:34.896Z,33.75
2019-01-09T10:11:34.879Z,28.12
2019-01-09T10:12:35.318Z,28.12
2019-01-09T10:13:34.908Z,28.12
2019-01-09T10:14:34.851Z,28.12
2019-01-09T10:15:35.134Z,28.12
2019-01-09T10:16:34.876Z,28.12
2019-01-09T10:17:34.835Z,28.12
2019-01-09T10:18:34.946Z,28.12
2019-01-09T10:19:34.838Z,28.12
2019-01-09T10:20:34.865Z,28.12
2019-01-09T10:21:35.094Z,28.12
2019-01-09T10:22:34.855Z,28.12
2019-01-09T10:23:34.822Z,28.12
2019-01-09T10:24:34.816Z,28.12
2019-01-09T10:25:35.246Z,28.12
2019-01-09T10:26:35.186Z,28.12
2019-01-09T10:27:34.764Z,28.12
2019-01-09T10:28:34.720Z,28.12
2019-01-09T10:29:35.731Z,28.12
2019-01-09T10:30:34.747Z,28.12
2019-01-09T10:31:35.194Z,28.12
2019-01-09T10:32:35.034Z,28.12
2019-01-09T10:33:34.804Z,28.12
2019-01-09T10:34:34.664Z,28.12
2019-01-09T10:35:34.695Z,28.12
2019-01-09T10:36:35.253Z,28.12
2019-01-09T10:37:34.658Z,28.12
2019-01-09T10:38:38.216Z,33.75
2019-01-09T10:39:34.801Z,33.75
2019-01-09T10:40:36.302Z,33.75
2019-01-09T10:41:34.801Z,33.75
2019-01-09T10:42:34.773Z,33.75
2019-01-09T10:43:34.667Z,33.75
2019-01-09T10:44:34.787Z,33.75
2019-01-09T10:45:34.798Z,39.38
2019-01-09T10:46:34.554Z,39.38
2019-01-09T10:47:34.595Z,39.38
2019-01-09T10:48:34.986Z,45.00
2019-01-09T10:49:34.569Z,45.00
2019-01-09T10:50:34.508Z,45.00
2019-01-09T10:51:34.990Z,45.00
2019-01-09T10:52:34.498Z,45.00
2019-01-09T10:53:34.449Z,45.00
2019-01-09T10:54:34.458Z,50.62
2019-01-09T10:55:34.463Z,45.00
2019-01-09T10:56:34.426Z,45.00
2019-01-09T10:57:34.590Z,45.00
2019-01-09T10:58:34.482Z,45.00
2019-01-09T10:59:34.410Z,39.38
2019-01-09T11:00:34.456Z,39.38
2019-01-09T11:01:34.673Z,33.75
2019-01-09T11:02:34.613Z,33.75
2019-01-09T11:03:34.638Z,33.75
2019-01-09T11:04:34.510Z,28.12
2019-01-09T11:05:34.337Z,28.12
2019-01-09T11:06:34.431Z,28.12
2019-01-09T11:07:36.530Z,28.12
2019-01-09T11:08:34.293Z,28.12
2019-01-09T11:09:34.370Z,28.12
2019-01-09T11:10:34.274Z,33.75
2019-01-09T11:11:34.285Z,33.75
2019-01-09T11:12:34.263Z,28.12
2019-01-09T11:13:34.426Z,33.75
2019-01-09T11:14:34.535Z,33.75
2019-01-09T11:15:34.283Z,39.38
2019-01-09T11:16:34.313Z,39.38
2019-01-09T11:17:35.774Z,39.38
2019-01-09T11:18:34.434Z,33.75
2019-01-09T11:19:34.672Z,33.75
2019-01-09T11:20:34.170Z,33.75
2019-01-09T11:21:34.163Z,39.38
2019-01-09T11:22:34.154Z,33.75
2019-01-09T11:23:34.142Z,33.75
2019-01-09T11:24:34.270Z,33.75
2019-01-09T11:25:34.494Z,39.38
2019-01-09T11:26:36.832Z,39.38
2019-01-09T11:27:34.205Z,45.00
2019-01-09T11:28:40.945Z,45.00
2019-01-09T11:29:34.164Z,45.00
2019-01-09T11:30:34.193Z,45.00
2019-01-09T11:31:34.433Z,50.62
2019-01-09T11:32:34.156Z,50.62
2019-01-09T11:33:34.036Z,50.62
2019-01-09T11:34:34.200Z,56.25
2019-01-09T11:35:34.016Z,56.25
2019-01-09T11:36:34.055Z,61.88
2019-01-09T11:37:35.517Z,61.88
2019-01-09T11:38:34.546Z,73.12
2019-01-09T11:39:34.501Z,78.75
2019-01-09T11:40:34.247Z,73.12
2019-01-09T11:41:34.264Z,67.50
2019-01-09T11:42:33.966Z,67.50
2019-01-09T11:43:34.146Z,56.25
2019-01-09T11:44:33.995Z,50.62
2019-01-09T11:45:34.102Z,50.62
2019-01-09T11:46:34.417Z,56.25
2019-01-09T11:47:34.301Z,61.88
2019-01-09T11:48:34.208Z,61.88
2019-01-09T11:49:34.697Z,61.88
2019-01-09T11:50:33.860Z,61.88
2019-01-09T11:51:33.987Z,56.25
2019-01-09T11:52:34.178Z,50.62
2019-01-09T11:53:33.856Z,45.00
2019-01-09T11:54:33.962Z,33.75
2019-01-09T11:55:34.199Z,33.75
2019-01-09T11:56:34.122Z,39.38
2019-01-09T11:57:33.943Z,39.38
2019-01-09T11:58:33.900Z,39.38
2019-01-09T11:59:33.802Z,39.38
2019-01-09T12:00:34.130Z,33.75
2019-01-09T12:01:34.490Z,33.75
2019-01-09T12:02:33.820Z,28.12
2019-01-09T12:03:33.804Z,28.12
2019-01-09T12:04:33.828Z,28.12
2019-01-09T12:05:33.873Z,28.12
2019-01-09T12:06:33.717Z,33.75
2019-01-09T12:07:34.299Z,39.38
2019-01-09T12:08:33.727Z,39.38
2019-01-09T12:09:33.766Z,45.00
2019-01-09T12:10:33.684Z,45.00
2019-01-09T12:11:33.788Z,45.00
2019-01-09T12:12:33.847Z,39.38
2019-01-09T12:13:33.677Z,39.38
2019-01-09T12:14:33.614Z,39.38
2019-01-09T12:15:33.799Z,39.38
2019-01-09T12:16:33.600Z,33.75
2019-01-09T12:17:34.956Z,28.12
2019-01-09T12:18:33.656Z,22.50
2019-01-09T12:19:35.727Z,28.12
2019-01-09T12:20:33.816Z,28.12
2019-01-09T12:21:33.732Z,28.12
2019-01-09T12:22:34.148Z,28.12
2019-01-09T12:23:35.402Z,33.75
2019-01-09T12:24:34.704Z,39.38
2019-01-09T12:25:34.406Z,45.00
2019-01-09T12:26:33.631Z,50.62
2019-01-09T12:27:33.750Z,50.62
2019-01-09T12:28:33.480Z,56.25
2019-01-09T12:29:33.547Z,56.25
2019-01-09T12:30:33.484Z,56.25
2019-01-09T12:31:33.836Z,56.25
2019-01-09T12:32:33.606Z,61.88
2019-01-09T12:33:33.807Z,61.88
2019-01-09T12:34:33.567Z,61.88
2019-01-09T12:35:33.532Z,56.25
2019-01-09T12:36:33.387Z,56.25
2019-01-09T12:37:33.498Z,56.25
2019-01-09T12:38:33.367Z,56.25
2019-01-09T12:39:33.370Z,50.62
2019-01-09T12:40:33.343Z,56.25
2019-01-09T12:41:33.802Z,56.25
2019-01-09T12:42:33.753Z,61.88
2019-01-09T12:43:33.409Z,61.88
2019-01-09T12:44:33.329Z,61.88
2019-01-09T12:45:33.310Z,61.88
2019-01-09T12:46:33.279Z,61.88
2019-01-09T12:47:33.271Z,61.88
2019-01-09T12:48:33.341Z,67.50
2019-01-09T12:49:33.325Z,84.38
2019-01-09T12:50:33.286Z,90.00
2019-01-09T12:51:34.393Z,95.62
2019-01-09T12:52:33.266Z,95.62
2019-01-09T12:53:34.072Z,95.62
2019-01-09T12:54:33.204Z,95.62
2019-01-09T12:55:33.393Z,101.25
2019-01-09T12:56:33.178Z,106.88
2019-01-09T12:57:33.167Z,101.25
2019-01-09T12:58:33.307Z,101.25
2019-01-09T12:59:33.146Z,84.38
2019-01-09T13:00:33.231Z,78.75
2019-01-09T13:01:33.180Z,67.50
2019-01-09T13:02:33.115Z,61.88
2019-01-09T13:03:33.111Z,61.88
2019-01-09T13:04:33.102Z,56.25
2019-01-09T13:05:33.087Z,50.62
2019-01-09T13:06:33.427Z,45.00
2019-01-09T13:07:33.516Z,39.38
2019-01-09T13:08:33.081Z,33.75